Schreiber, Canada
Current Conditions -  °F | °C
As of 3:00 AM on Friday 24 Oct 2014 (Local Time) from CYGQ Reporting Station
Drizzle Drizzle  
Wind Chill: 42°   Ceiling: 400
Heat Index: 45°   Visibility: 0.75mi
Dew Point: 45°   Wind: 5mph
Humidity: 100%   Direction: 220°SW
Pressure: 29.89"   Gusts: NA
Location:  48.8°N, 87.27°W
Report Text: CYGQ 240700Z 22004KT 3/4SM -DZ BR VV004 07/07 A2989 RMK FG8SLP136
Loading
Personal Weather Stations






























Interactive Weather Map
Tropical Storm Tracking
New forecast layout! Learn more

10-Day Weather Forecast

Advertisements
Track Severe Weather on mobile